Time;durP1;ratioP1;P1;durP2;ratioP2;P2;SDS_P1;SDS_P2;PMS_P1;PMS_P2;Temp;Humidity;BMP_temperature;BMP_pressure;BME280_temperature;BME280_humidity;BME280_pressure;Samples;Min_cycle;Max_cycle;Signal;HPM_P1;HPM_P2
2021/04/28 00:00:29;;;;;;;;;;;9.20;77.00;;;;;;5092340;28;19915;-74
2021/04/28 00:02:55;;;;;;;;;;;9.10;76.30;;;;;;5094870;28;19919;-73
2021/04/28 00:05:21;;;;;;;;;;;9.10;76.60;;;;;;5082916;28;19920;-73
2021/04/28 00:07:47;;;;;;;;;;;9.10;76.70;;;;;;5074740;28;19932;-74
2021/04/28 00:10:14;;;;;;;;;;;9.10;77.30;;;;;;5074126;28;19954;-73
2021/04/28 00:12:40;;;;;;;;;;;9.00;77.50;;;;;;5082254;28;19919;-74
2021/04/28 00:15:11;;;;;;;;;;;8.90;79.20;;;;;;5094317;28;19908;-75
2021/04/28 00:17:37;;;;;;;;;;;8.80;78.90;;;;;;5092740;28;19916;-75
2021/04/28 00:20:06;;;;;;;;;;;8.70;79.70;;;;;;5075146;28;19931;-73
2021/04/28 00:22:32;;;;;;;;;;;8.70;80.10;;;;;;5080455;28;19912;-74
2021/04/28 00:24:57;;;;;;;;;;;8.70;80.50;;;;;;5093883;28;19935;-74
2021/04/28 00:27:23;;;;;;;;;;;8.60;80.00;;;;;;5077365;28;20368;-75
2021/04/28 00:29:48;;;;;;;;;;;8.50;80.00;;;;;;5077786;28;19908;-75
2021/04/28 00:32:14;;;;;;;;;;;8.50;80.50;;;;;;5082617;28;19931;-75
2021/04/28 00:34:39;;;;;;;;;;;8.50;80.30;;;;;;5084355;28;20360;-75
2021/04/28 00:37:05;;;;;;;;;;;8.40;80.60;;;;;;5077175;28;19908;-75
2021/04/28 00:39:30;;;;;;;;;;;8.30;80.70;;;;;;5074945;28;19962;-75
2021/04/28 00:41:56;;;;;;;;;;;8.30;81.20;;;;;;5075743;28;19954;-75
2021/04/28 00:44:22;;;;;;;;;;;8.20;81.50;;;;;;5086444;28;19963;-75
2021/04/28 00:46:47;;;;;;;;;;;8.10;81.70;;;;;;5073759;28;20325;-75
2021/04/28 00:49:13;;;;;;;;;;;8.10;82.20;;;;;;5075116;28;19914;-74
2021/04/28 00:51:38;;;;;;;;;;;8.00;82.40;;;;;;5074666;28;19915;-74
2021/04/28 00:54:04;;;;;;;;;;;8.00;82.60;;;;;;5077499;28;20332;-74
2021/04/28 00:56:30;;;;;;;;;;;8.00;83.30;;;;;;5084669;28;19912;-75
2021/04/28 00:58:55;;;;;;;;;;;8.00;83.90;;;;;;5084771;28;20292;-74
2021/04/28 01:01:21;;;;;;;;;;;7.90;83.20;;;;;;5091485;28;19908;-74
2021/04/28 01:03:48;;;;;;;;;;;7.80;84.10;;;;;;5085452;28;20387;-74
2021/04/28 01:06:13;;;;;;;;;;;7.90;83.50;;;;;;5074244;28;19917;-75
2021/04/28 01:08:40;;;;;;;;;;;7.80;83.80;;;;;;5075448;28;19975;-74
2021/04/28 01:11:05;;;;;;;;;;;7.90;83.40;;;;;;5091746;28;19965;-75
2021/04/28 01:13:31;;;;;;;;;;;7.80;83.40;;;;;;5092946;28;19908;-74
2021/04/28 01:15:56;;;;;;;;;;;7.80;83.40;;;;;;5074706;28;19954;-75
2021/04/28 01:18:22;;;;;;;;;;;7.80;83.70;;;;;;5074146;28;20364;-74
2021/04/28 01:20:48;;;;;;;;;;;7.80;83.80;;;;;;5079543;28;19908;-74
2021/04/28 01:23:15;;;;;;;;;;;7.80;84.20;;;;;;5086876;28;19916;-75
2021/04/28 01:25:41;;;;;;;;;;;7.80;84.50;;;;;;5072859;28;19908;-74
2021/04/28 01:28:14;;;;;;;;;;;7.80;84.80;;;;;;5088355;28;19908;-76
2021/04/28 01:30:41;;;;;;;;;;;7.80;85.00;;;;;;5074142;28;19931;-73
2021/04/28 01:33:09;;;;;;;;;;;7.80;85.10;;;;;;5075528;28;19908;-75
2021/04/28 01:35:35;;;;;;;;;;;7.80;85.10;;;;;;5092841;28;19915;-75
2021/04/28 01:38:01;;;;;;;;;;;7.70;84.90;;;;;;5076433;28;19908;-74
2021/04/28 01:40:27;;;;;;;;;;;7.80;84.50;;;;;;5072645;28;19953;-75
2021/04/28 01:42:53;;;;;;;;;;;7.70;84.90;;;;;;5072477;28;19913;-74
2021/04/28 01:45:19;;;;;;;;;;;7.80;85.00;;;;;;5073804;28;20277;-73
2021/04/28 01:47:45;;;;;;;;;;;7.80;84.40;;;;;;5073857;28;19908;-74
2021/04/28 01:50:12;;;;;;;;;;;7.80;84.40;;;;;;5072629;28;19915;-74
2021/04/28 01:52:40;;;;;;;;;;;7.80;85.10;;;;;;5073724;28;19958;-74
2021/04/28 01:55:06;;;;;;;;;;;7.80;85.20;;;;;;5073628;28;20007;-74
2021/04/28 01:57:32;;;;;;;;;;;7.80;85.30;;;;;;5083773;28;20000;-75
2021/04/28 01:59:57;;;;;;;;;;;7.70;85.80;;;;;;5091071;28;19955;-74
2021/04/28 02:02:23;;;;;;;;;;;7.60;85.70;;;;;;5091868;28;19919;-75
2021/04/28 02:04:49;;;;;;;;;;;7.70;86.50;;;;;;5093039;28;20367;-74
2021/04/28 02:07:14;;;;;;;;;;;7.60;86.80;;;;;;5092998;28;19908;-74
2021/04/28 02:09:40;;;;;;;;;;;7.60;87.00;;;;;;5092403;28;19919;-75
2021/04/28 02:12:06;;;;;;;;;;;7.60;87.30;;;;;;5092759;28;20029;-74
2021/04/28 02:14:32;;;;;;;;;;;7.60;87.30;;;;;;5092892;28;19908;-75
2021/04/28 02:16:58;;;;;;;;;;;7.60;87.50;;;;;;5096516;28;20386;-75
2021/04/28 02:19:23;;;;;;;;;;;7.60;88.20;;;;;;5096775;28;19995;-74
2021/04/28 02:21:50;;;;;;;;;;;7.60;88.40;;;;;;5096128;28;19912;-75
2021/04/28 02:24:16;;;;;;;;;;;7.60;88.80;;;;;;5097130;28;19919;-74
2021/04/28 02:26:42;;;;;;;;;;;7.50;89.10;;;;;;5095143;28;20261;-74
2021/04/28 02:29:08;;;;;;;;;;;7.50;88.90;;;;;;5096093;28;19907;-75
2021/04/28 02:31:34;;;;;;;;;;;7.50;89.50;;;;;;5096620;28;19915;-74
2021/04/28 02:34:04;;;;;;;;;;;7.40;90.30;;;;;;5095456;28;19965;-74
2021/04/28 02:36:34;;;;;;;;;;;7.30;90.10;;;;;;5098892;28;19911;-76
2021/04/28 02:39:03;;;;;;;;;;;7.30;90.00;;;;;;5099149;28;20002;-75
2021/04/28 02:41:29;;;;;;;;;;;7.30;90.20;;;;;;5101061;28;19919;-76
2021/04/28 02:43:55;;;;;;;;;;;7.30;90.10;;;;;;5099313;28;19912;-75
2021/04/28 02:46:22;;;;;;;;;;;7.30;90.30;;;;;;5097819;28;19908;-74
2021/04/28 02:48:48;;;;;;;;;;;7.30;90.20;;;;;;5097152;28;19915;-73
2021/04/28 02:51:13;;;;;;;;;;;7.20;90.20;;;;;;5097240;28;19907;-73
2021/04/28 02:53:41;;;;;;;;;;;7.20;90.30;;;;;;5095475;28;20364;-73
2021/04/28 02:56:07;;;;;;;;;;;7.20;90.40;;;;;;5095436;28;19915;-73
2021/04/28 02:58:32;;;;;;;;;;;7.20;90.40;;;;;;5096347;28;20360;-73
2021/04/28 03:00:58;;;;;;;;;;;7.30;90.10;;;;;;5096388;28;19908;-73
2021/04/28 03:03:24;;;;;;;;;;;7.20;90.10;;;;;;5093063;28;19911;-73
2021/04/28 03:05:50;;;;;;;;;;;7.20;90.10;;;;;;5094710;28;19969;-73
2021/04/28 03:08:15;;;;;;;;;;;7.20;90.00;;;;;;5096183;28;20015;-73
2021/04/28 03:10:41;;;;;;;;;;;7.20;90.10;;;;;;5087720;28;19955;-73
2021/04/28 03:13:07;;;;;;;;;;;7.20;90.00;;;;;;5094420;28;20269;-73
2021/04/28 03:15:32;;;;;;;;;;;7.30;90.00;;;;;;5096111;28;19962;-73
2021/04/28 03:17:58;;;;;;;;;;;7.30;89.70;;;;;;5094636;28;19908;-72
2021/04/28 03:20:25;;;;;;;;;;;7.30;90.20;;;;;;5094703;28;19908;-74
2021/04/28 03:22:51;;;;;;;;;;;7.30;90.10;;;;;;5095208;28;19912;-73
2021/04/28 03:25:16;;;;;;;;;;;7.30;90.00;;;;;;5095877;28;20280;-73
2021/04/28 03:27:42;;;;;;;;;;;7.30;90.00;;;;;;5095156;28;19908;-73
2021/04/28 03:30:08;;;;;;;;;;;7.20;90.20;;;;;;5095415;28;19961;-74
2021/04/28 03:32:34;;;;;;;;;;;7.20;90.40;;;;;;5093244;28;20045;-73
2021/04/28 03:34:59;;;;;;;;;;;7.20;90.50;;;;;;5096371;28;19943;-72
2021/04/28 03:37:25;;;;;;;;;;;7.10;90.40;;;;;;5095309;28;19904;-72
2021/04/28 03:39:50;;;;;;;;;;;7.20;90.20;;;;;;5096597;28;19904;-73
2021/04/28 03:42:16;;;;;;;;;;;7.20;90.30;;;;;;5087061;28;19934;-73
2021/04/28 03:44:42;;;;;;;;;;;7.20;90.50;;;;;;5083449;28;19904;-73
2021/04/28 03:47:07;;;;;;;;;;;7.10;91.10;;;;;;5095818;28;19961;-73
2021/04/28 03:49:33;;;;;;;;;;;7.10;90.60;;;;;;5096223;28;19904;-73
2021/04/28 03:51:58;;;;;;;;;;;7.00;90.60;;;;;;5095427;28;19912;-72
2021/04/28 03:54:24;;;;;;;;;;;7.00;90.90;;;;;;5096209;28;19946;-74
2021/04/28 03:56:49;;;;;;;;;;;6.90;91.50;;;;;;5095981;28;19994;-72
2021/04/28 03:59:16;;;;;;;;;;;6.90;91.20;;;;;;5095509;28;20364;-73
2021/04/28 04:01:42;;;;;;;;;;;6.90;91.00;;;;;;5077372;28;19909;-73
2021/04/28 04:04:07;;;;;;;;;;;6.90;91.20;;;;;;5091704;28;19912;-72
2021/04/28 04:06:34;;;;;;;;;;;6.90;91.10;;;;;;5075462;28;19920;-73
2021/04/28 04:08:59;;;;;;;;;;;6.90;91.30;;;;;;5094181;28;19912;-73
2021/04/28 04:11:25;;;;;;;;;;;6.80;91.50;;;;;;5094074;28;20307;-73
2021/04/28 04:13:51;;;;;;;;;;;6.70;91.70;;;;;;5083411;28;19908;-73
2021/04/28 04:16:16;;;;;;;;;;;6.70;91.70;;;;;;5075308;28;19979;-74
2021/04/28 04:18:42;;;;;;;;;;;6.70;92.00;;;;;;5078578;28;20257;-74
2021/04/28 04:21:07;;;;;;;;;;;6.60;91.90;;;;;;5074378;28;20246;-74
2021/04/28 04:23:33;;;;;;;;;;;6.60;92.10;;;;;;5075486;28;19915;-73
2021/04/28 04:25:58;;;;;;;;;;;6.60;92.30;;;;;;5085811;28;19935;-74
2021/04/28 04:28:24;;;;;;;;;;;6.50;91.90;;;;;;5093985;28;19911;-73
2021/04/28 04:30:51;;;;;;;;;;;6.60;92.20;;;;;;5104076;28;19912;-74
2021/04/28 04:33:17;;;;;;;;;;;6.50;92.40;;;;;;5113348;28;19976;-74
2021/04/28 04:35:43;;;;;;;;;;;6.50;92.50;;;;;;5112454;28;19919;-74
2021/04/28 04:38:09;;;;;;;;;;;6.50;92.50;;;;;;5101046;28;19991;-74
2021/04/28 04:40:34;;;;;;;;;;;6.50;92.50;;;;;;5097763;28;19962;-74
2021/04/28 04:43:00;;;;;;;;;;;6.60;92.90;;;;;;5092551;28;19912;-75
2021/04/28 04:45:25;;;;;;;;;;;6.50;93.00;;;;;;5089226;28;19904;-74
2021/04/28 04:47:51;;;;;;;;;;;6.50;92.90;;;;;;5094490;28;19908;-75
2021/04/28 04:50:16;;;;;;;;;;;6.60;92.90;;;;;;5088454;28;19904;-74
2021/04/28 04:52:42;;;;;;;;;;;6.60;93.00;;;;;;5079939;28;19908;-74
2021/04/28 04:55:08;;;;;;;;;;;6.70;92.60;;;;;;5093239;28;19904;-74
2021/04/28 04:57:35;;;;;;;;;;;6.70;92.70;;;;;;5094433;28;19912;-74
2021/04/28 05:00:01;;;;;;;;;;;6.70;92.50;;;;;;5093673;28;20296;-74
2021/04/28 05:02:26;;;;;;;;;;;6.70;92.90;;;;;;5082884;28;19908;-74
2021/04/28 05:04:51;;;;;;;;;;;6.70;93.00;;;;;;5081933;28;20001;-73
2021/04/28 05:07:17;;;;;;;;;;;6.80;93.20;;;;;;5079157;28;19915;-74
2021/04/28 05:09:43;;;;;;;;;;;6.80;93.30;;;;;;5094786;28;19907;-74
2021/04/28 05:12:08;;;;;;;;;;;6.80;92.90;;;;;;5094584;28;19915;-73
2021/04/28 05:14:33;;;;;;;;;;;6.90;92.50;;;;;;5079708;28;20240;-74
2021/04/28 05:16:59;;;;;;;;;;;7.00;92.40;;;;;;5074226;28;19913;-73
2021/04/28 05:19:24;;;;;;;;;;;7.00;92.40;;;;;;5093048;28;20003;-74
2021/04/28 05:21:50;;;;;;;;;;;7.00;92.70;;;;;;5094338;28;19953;-73
2021/04/28 05:24:15;;;;;;;;;;;7.00;92.20;;;;;;5094264;28;19961;-74
2021/04/28 05:26:41;;;;;;;;;;;7.10;92.30;;;;;;5093849;28;19914;-74
2021/04/28 05:29:06;;;;;;;;;;;7.10;92.20;;;;;;5092409;28;19962;-73
2021/04/28 05:31:32;;;;;;;;;;;7.20;92.20;;;;;;5093943;28;19908;-73
2021/04/28 05:33:58;;;;;;;;;;;7.30;92.00;;;;;;5091550;28;19908;-73
2021/04/28 05:36:24;;;;;;;;;;;7.40;91.40;;;;;;5092593;28;19915;-73
2021/04/28 05:38:49;;;;;;;;;;;7.40;91.60;;;;;;5079090;28;19912;-73
2021/04/28 05:41:15;;;;;;;;;;;7.50;91.40;;;;;;5088162;28;19908;-73
2021/04/28 05:43:40;;;;;;;;;;;7.50;91.50;;;;;;5092662;28;19912;-73
2021/04/28 05:46:08;;;;;;;;;;;7.50;91.90;;;;;;5093839;28;19908;-73
2021/04/28 05:48:34;;;;;;;;;;;7.60;91.50;;;;;;5082526;28;19978;-73
2021/04/28 05:50:59;;;;;;;;;;;7.70;91.20;;;;;;5089759;28;19912;-73
2021/04/28 05:53:25;;;;;;;;;;;7.70;91.40;;;;;;5092566;28;19908;-73
2021/04/28 05:55:50;;;;;;;;;;;7.70;91.50;;;;;;5093745;28;19914;-73
2021/04/28 05:58:16;;;;;;;;;;;7.80;91.60;;;;;;5092266;28;20328;-74
2021/04/28 06:00:41;;;;;;;;;;;7.80;91.10;;;;;;5091826;28;19961;-73
2021/04/28 06:03:07;;;;;;;;;;;7.90;91.20;;;;;;5093593;28;20312;-73
2021/04/28 06:05:32;;;;;;;;;;;7.90;91.30;;;;;;5091644;28;19922;-73
2021/04/28 06:07:58;;;;;;;;;;;8.10;91.10;;;;;;5079663;28;19944;-73
2021/04/28 06:10:23;;;;;;;;;;;8.20;91.30;;;;;;5092765;28;20356;-73
2021/04/28 06:12:49;;;;;;;;;;;8.30;90.40;;;;;;5090112;28;20010;-73
2021/04/28 06:15:15;;;;;;;;;;;8.40;90.30;;;;;;5092316;28;19912;-73
2021/04/28 06:17:42;;;;;;;;;;;8.60;90.20;;;;;;5092827;28;19966;-73
2021/04/28 06:20:09;;;;;;;;;;;8.70;90.10;;;;;;5092989;28;19915;-73
2021/04/28 06:22:35;;;;;;;;;;;8.80;90.30;;;;;;5092062;28;19982;-73
2021/04/28 06:25:00;;;;;;;;;;;8.80;90.30;;;;;;5092273;28;19962;-73
2021/04/28 06:27:26;;;;;;;;;;;8.80;90.30;;;;;;5089743;28;19993;-73
2021/04/28 06:29:51;;;;;;;;;;;9.10;89.20;;;;;;5089950;28;19915;-73
2021/04/28 06:32:17;;;;;;;;;;;9.40;89.30;;;;;;5092663;28;19908;-74
2021/04/28 06:34:43;;;;;;;;;;;9.40;88.90;;;;;;5088951;28;19927;-74
2021/04/28 06:37:09;;;;;;;;;;;9.30;88.60;;;;;;5091303;28;19951;-75
2021/04/28 06:39:35;;;;;;;;;;;9.40;88.40;;;;;;5095023;28;20433;-74
2021/04/28 06:42:00;;;;;;;;;;;9.50;88.20;;;;;;5095265;28;19908;-75
2021/04/28 06:44:26;;;;;;;;;;;9.60;88.20;;;;;;5095143;28;19970;-75
2021/04/28 06:46:51;;;;;;;;;;;9.60;88.70;;;;;;5096219;28;19908;-74
2021/04/28 06:49:17;;;;;;;;;;;9.70;87.90;;;;;;5093572;28;19920;-73
2021/04/28 06:54:26;;;;;;;;;;;9.80;87.60;;;;;;5090042;28;20407;-72
2021/04/28 06:56:51;;;;;;;;;;;9.90;87.20;;;;;;5091334;28;19955;-72
2021/04/28 06:59:18;;;;;;;;;;;10.00;86.90;;;;;;5091745;28;19908;-72
2021/04/28 07:01:45;;;;;;;;;;;10.00;86.80;;;;;;5092693;28;19908;-73
2021/04/28 07:04:11;;;;;;;;;;;9.90;88.00;;;;;;5095529;28;20421;-73
2021/04/28 07:06:37;;;;;;;;;;;9.80;87.50;;;;;;5093793;28;19931;-72
2021/04/28 07:09:04;;;;;;;;;;;9.90;87.30;;;;;;5095993;28;20644;-73
2021/04/28 07:11:30;;;;;;;;;;;9.90;87.10;;;;;;5093914;28;19994;-72
2021/04/28 07:13:55;;;;;;;;;;;10.10;87.10;;;;;;5095832;28;19992;-72
2021/04/28 07:16:21;;;;;;;;;;;10.30;87.10;;;;;;5093705;28;20259;-72
2021/04/28 07:18:46;;;;;;;;;;;10.40;87.40;;;;;;5091317;28;19919;-75
2021/04/28 07:21:12;;;;;;;;;;;10.60;87.20;;;;;;5093394;28;20348;-73
2021/04/28 07:23:37;;;;;;;;;;;10.80;87.60;;;;;;5095102;28;19912;-73
2021/04/28 07:26:03;;;;;;;;;;;11.30;85.90;;;;;;5096264;28;19916;-73
2021/04/28 07:28:28;;;;;;;;;;;11.40;84.80;;;;;;5096358;28;19977;-73
2021/04/28 07:30:54;;;;;;;;;;;11.50;84.20;;;;;;5096315;28;20271;-73
2021/04/28 07:33:20;;;;;;;;;;;11.50;84.40;;;;;;5096112;28;19908;-74
2021/04/28 07:35:45;;;;;;;;;;;11.50;84.40;;;;;;5094954;28;19957;-73
2021/04/28 07:38:11;;;;;;;;;;;11.60;84.60;;;;;;5095663;28;19958;-73
2021/04/28 07:40:36;;;;;;;;;;;11.80;83.40;;;;;;5094744;28;19915;-73
2021/04/28 07:43:02;;;;;;;;;;;11.60;84.30;;;;;;5094230;28;20390;-74
2021/04/28 07:45:28;;;;;;;;;;;11.50;84.00;;;;;;5094403;28;19908;-72
2021/04/28 07:47:53;;;;;;;;;;;11.50;84.50;;;;;;5091345;28;20008;-72
2021/04/28 07:50:19;;;;;;;;;;;11.70;84.00;;;;;;5083696;28;19919;-71
2021/04/28 07:52:48;;;;;;;;;;;11.80;84.20;;;;;;5093942;28;19931;-71
2021/04/28 07:55:14;;;;;;;;;;;12.00;83.60;;;;;;5086056;28;19943;-72
2021/04/28 07:57:39;;;;;;;;;;;12.20;82.50;;;;;;5085441;28;19912;-74
2021/04/28 08:00:06;;;;;;;;;;;12.20;82.90;;;;;;5090598;28;19915;-74
2021/04/28 08:02:32;;;;;;;;;;;12.30;82.60;;;;;;5094923;28;19927;-78
2021/04/28 08:04:57;;;;;;;;;;;12.30;83.70;;;;;;5094862;28;19908;-73
2021/04/28 08:07:23;;;;;;;;;;;12.50;82.20;;;;;;5092866;28;20410;-73
2021/04/28 08:09:48;;;;;;;;;;;12.60;81.30;;;;;;5090536;28;19911;-73
2021/04/28 08:12:14;;;;;;;;;;;12.30;82.00;;;;;;5087243;28;19915;-72
2021/04/28 08:14:39;;;;;;;;;;;12.30;81.90;;;;;;5092806;28;19908;-72
2021/04/28 08:17:08;;;;;;;;;;;12.50;82.40;;;;;;5092959;28;19966;-72
2021/04/28 08:19:33;;;;;;;;;;;12.70;82.80;;;;;;5091725;28;19908;-72
2021/04/28 08:21:59;;;;;;;;;;;13.00;80.70;;;;;;5090246;28;20006;-72
2021/04/28 08:24:24;;;;;;;;;;;13.20;80.90;;;;;;5092337;28;19961;-72
2021/04/28 08:26:50;;;;;;;;;;;13.20;80.80;;;;;;5093239;28;19908;-71
2021/04/28 08:29:15;;;;;;;;;;;13.30;80.50;;;;;;5089606;28;20015;-72
2021/04/28 08:31:41;;;;;;;;;;;13.60;80.50;;;;;;5093507;28;19908;-71
2021/04/28 08:34:07;;;;;;;;;;;13.80;80.20;;;;;;5094629;28;19911;-73
2021/04/28 08:36:33;;;;;;;;;;;14.00;79.80;;;;;;5094514;28;20272;-73
2021/04/28 08:38:58;;;;;;;;;;;14.10;79.10;;;;;;5093875;28;19904;-72
2021/04/28 08:41:24;;;;;;;;;;;14.10;76.70;;;;;;5092096;28;20402;-72
2021/04/28 08:43:49;;;;;;;;;;;14.30;76.50;;;;;;5090838;28;20018;-72
2021/04/28 08:46:15;;;;;;;;;;;14.30;77.50;;;;;;5094494;28;19908;-72
2021/04/28 08:48:40;;;;;;;;;;;14.60;76.80;;;;;;5093482;28;19911;-73
2021/04/28 08:51:06;;;;;;;;;;;14.80;74.90;;;;;;5092290;28;19969;-72
2021/04/28 08:53:32;;;;;;;;;;;15.00;73.90;;;;;;5091930;28;19954;-73
2021/04/28 08:56:03;;;;;;;;;;;15.40;74.00;;;;;;5074832;28;19989;-73
2021/04/28 08:58:28;;;;;;;;;;;15.80;70.80;;;;;;5087430;28;19943;-72
2021/04/28 09:00:54;;;;;;;;;;;15.90;71.20;;;;;;5094636;28;19908;-72
2021/04/28 09:03:19;;;;;;;;;;;16.00;70.40;;;;;;5093757;28;20443;-72
2021/04/28 09:05:45;;;;;;;;;;;16.00;71.40;;;;;;5093104;28;20261;-72
2021/04/28 09:08:12;;;;;;;;;;;16.40;71.00;;;;;;5093129;28;19915;-72
2021/04/28 09:10:39;;;;;;;;;;;16.60;70.40;;;;;;5095413;28;19908;-72
2021/04/28 09:13:22;;;;;;;;;;;16.50;70.10;;;;;;5097097;28;19908;-71
2021/04/28 09:15:48;;;;;;;;;;;16.00;69.60;;;;;;5098930;28;20348;-72
2021/04/28 09:18:15;;;;;;;;;;;15.40;70.50;;;;;;5096354;28;19996;-72
2021/04/28 09:20:47;;;;;;;;;;;15.20;71.00;;;;;;5093793;28;19916;-72
2021/04/28 09:23:14;;;;;;;;;;;14.90;71.90;;;;;;5092679;28;19920;-73
2021/04/28 09:25:58;;;;;;;;;;;14.80;73.20;;;;;;5092945;28;19941;-72
2021/04/28 09:28:23;;;;;;;;;;;14.70;72.60;;;;;;5090928;28;19915;-73
2021/04/28 09:30:50;;;;;;;;;;;14.60;73.80;;;;;;5089953;28;19915;-72
2021/04/28 09:33:15;;;;;;;;;;;15.10;73.40;;;;;;5090607;28;19908;-72
2021/04/28 09:35:41;;;;;;;;;;;15.70;72.50;;;;;;5092379;28;19908;-72
2021/04/28 09:38:06;;;;;;;;;;;16.50;70.90;;;;;;5093276;28;19908;-72
2021/04/28 09:40:59;;;;;;;;;;;16.90;69.90;;;;;;5090284;28;19908;-71
2021/04/28 09:43:37;;;;;;;;;;;17.30;69.40;;;;;;5090074;28;20283;-72
2021/04/28 09:46:02;;;;;;;;;;;17.60;68.90;;;;;;5091393;28;19907;-72
2021/04/28 09:48:28;;;;;;;;;;;17.60;67.50;;;;;;5087877;28;19916;-71
2021/04/28 09:51:11;;;;;;;;;;;17.20;67.60;;;;;;5092031;28;20344;-74
2021/04/28 09:53:37;;;;;;;;;;;16.30;69.30;;;;;;5088009;28;19908;-73
2021/04/28 09:56:03;;;;;;;;;;;15.80;70.60;;;;;;5093119;28;19961;-72
2021/04/28 09:58:47;;;;;;;;;;;15.40;70.60;;;;;;5088566;28;19904;-72
2021/04/28 10:01:16;;;;;;;;;;;15.50;71.30;;;;;;5092860;28;19908;-76
2021/04/28 10:03:45;;;;;;;;;;;15.40;71.80;;;;;;5092652;28;19919;-76
2021/04/28 10:06:10;;;;;;;;;;;15.40;72.20;;;;;;5092525;28;19965;-76
2021/04/28 10:08:36;;;;;;;;;;;15.50;71.70;;;;;;5091784;28;19908;-75
2021/04/28 10:11:02;;;;;;;;;;;15.70;71.90;;;;;;5089659;28;20003;-75
2021/04/28 10:13:28;;;;;;;;;;;15.60;71.90;;;;;;5084467;28;19908;-73
2021/04/28 10:15:53;;;;;;;;;;;15.80;72.90;;;;;;5089998;28;19934;-73
2021/04/28 10:18:21;;;;;;;;;;;16.10;71.50;;;;;;5093132;28;19912;-71
2021/04/28 10:20:48;;;;;;;;;;;16.50;72.10;;;;;;5091704;28;19908;-73
2021/04/28 10:23:14;;;;;;;;;;;17.10;71.20;;;;;;5092059;28;19912;-73
2021/04/28 10:25:40;;;;;;;;;;;17.40;70.60;;;;;;5091220;28;20018;-74
2021/04/28 10:28:07;;;;;;;;;;;17.80;68.50;;;;;;5093663;28;20004;-73
2021/04/28 10:30:34;;;;;;;;;;;17.40;68.90;;;;;;5093162;28;20280;-73
2021/04/28 10:33:00;;;;;;;;;;;17.40;69.00;;;;;;5092494;28;19926;-73
2021/04/28 10:35:28;;;;;;;;;;;17.60;68.50;;;;;;5093463;28;19904;-74
2021/04/28 10:37:54;;;;;;;;;;;17.70;69.00;;;;;;5097000;28;19908;-74
2021/04/28 10:40:20;;;;;;;;;;;17.40;68.40;;;;;;5097381;28;19907;-73
2021/04/28 10:42:47;;;;;;;;;;;17.30;69.30;;;;;;5095626;28;20372;-73
2021/04/28 10:45:18;;;;;;;;;;;17.30;69.20;;;;;;5095970;28;19904;-74
2021/04/28 10:47:45;;;;;;;;;;;17.40;68.90;;;;;;5097419;28;20268;-73
2021/04/28 10:50:23;;;;;;;;;;;17.70;69.10;;;;;;5097435;28;19904;-75
2021/04/28 10:53:01;;;;;;;;;;;17.90;68.20;;;;;;5097353;28;19904;-73
2021/04/28 10:55:46;;;;;;;;;;;17.80;69.50;;;;;;5096104;28;19910;-74
2021/04/28 10:58:35;;;;;;;;;;;17.70;68.00;;;;;;5097239;28;19904;-73
2021/04/28 11:01:01;;;;;;;;;;;17.20;68.40;;;;;;5085659;28;20419;-74
2021/04/28 11:03:30;;;;;;;;;;;17.10;68.50;;;;;;5096868;28;19943;-74
2021/04/28 11:05:58;;;;;;;;;;;17.20;68.40;;;;;;5096795;28;19966;-76
2021/04/28 11:08:30;;;;;;;;;;;17.40;68.00;;;;;;5097313;28;19942;-73
2021/04/28 11:10:56;;;;;;;;;;;17.60;68.50;;;;;;5096973;28;20403;-74
2021/04/28 11:13:23;;;;;;;;;;;17.90;69.20;;;;;;5095621;28;19908;-74
2021/04/28 11:15:49;;;;;;;;;;;18.20;68.50;;;;;;5095771;28;19914;-74
2021/04/28 11:18:33;;;;;;;;;;;18.70;66.10;;;;;;5095778;28;19908;-74
2021/04/28 11:21:17;;;;;;;;;;;18.80;66.30;;;;;;5096684;28;19915;-75
2021/04/28 11:24:01;;;;;;;;;;;18.80;66.50;;;;;;5096632;28;20418;-75
2021/04/28 11:26:27;;;;;;;;;;;18.80;67.00;;;;;;5096926;28;20380;-75
2021/04/28 11:28:59;;;;;;;;;;;19.00;65.70;;;;;;5095526;28;19911;-74
2021/04/28 11:31:38;;;;;;;;;;;19.20;64.80;;;;;;5095108;28;19919;-75
2021/04/28 11:34:22;;;;;;;;;;;19.20;64.10;;;;;;5096367;28;19937;-74
2021/04/28 11:36:51;;;;;;;;;;;19.10;65.60;;;;;;5095117;28;20376;-75
2021/04/28 11:39:36;;;;;;;;;;;19.20;64.60;;;;;;5080367;28;20346;-75
2021/04/28 11:42:09;;;;;;;;;;;19.20;65.00;;;;;;5096458;28;19951;-75
2021/04/28 11:44:36;;;;;;;;;;;19.40;65.10;;;;;;5095069;28;19912;-75
2021/04/28 11:47:06;;;;;;;;;;;19.70;64.30;;;;;;5083584;28;19908;-77
2021/04/28 11:49:31;;;;;;;;;;;20.00;63.20;;;;;;5087438;28;20292;-72
2021/04/28 11:51:57;;;;;;;;;;;20.00;63.50;;;;;;5095175;28;19915;-71
2021/04/28 11:54:23;;;;;;;;;;;20.00;63.90;;;;;;5094654;28;19953;-72
2021/04/28 11:56:48;;;;;;;;;;;20.00;63.80;;;;;;5094084;28;20360;-72
2021/04/28 11:59:18;;;;;;;;;;;19.90;63.70;;;;;;5096154;28;19934;-74
2021/04/28 12:01:43;;;;;;;;;;;19.50;65.00;;;;;;5094752;28;19947;-74
2021/04/28 12:04:09;;;;;;;;;;;19.60;63.10;;;;;;5095300;28;20525;-73
2021/04/28 12:06:36;;;;;;;;;;;19.50;64.10;;;;;;5094633;28;19922;-75
2021/04/28 12:09:02;;;;;;;;;;;19.20;65.00;;;;;;5096132;28;20407;-74
2021/04/28 12:11:27;;;;;;;;;;;19.10;65.20;;;;;;5094523;28;19908;-76
2021/04/28 12:13:53;;;;;;;;;;;19.20;64.70;;;;;;5094363;28;19916;-75
2021/04/28 12:16:19;;;;;;;;;;;19.10;64.50;;;;;;5096440;28;19908;-76
2021/04/28 12:18:45;;;;;;;;;;;19.10;65.40;;;;;;5094485;28;20368;-77
2021/04/28 12:21:11;;;;;;;;;;;19.20;65.30;;;;;;5095172;28;19908;-75
2021/04/28 12:23:37;;;;;;;;;;;19.40;67.60;;;;;;5095265;28;19957;-75
2021/04/28 12:26:07;;;;;;;;;;;19.60;64.60;;;;;;5095410;28;19915;-74
2021/04/28 12:28:32;;;;;;;;;;;19.90;64.20;;;;;;5093957;28;19988;-74
2021/04/28 12:30:58;;;;;;;;;;;19.90;64.00;;;;;;5095648;28;20372;-71
2021/04/28 12:33:23;;;;;;;;;;;19.60;65.90;;;;;;5094884;28;19930;-75
2021/04/28 12:35:49;;;;;;;;;;;19.80;65.00;;;;;;5095666;28;19918;-77
2021/04/28 12:38:16;;;;;;;;;;;19.80;63.80;;;;;;5095245;28;19907;-76
2021/04/28 12:40:44;;;;;;;;;;;19.50;63.30;;;;;;5094230;28;19908;-76
2021/04/28 12:43:11;;;;;;;;;;;18.90;64.40;;;;;;5094114;28;20010;-75
2021/04/28 12:45:38;;;;;;;;;;;18.70;67.40;;;;;;5095534;28;19908;-76
2021/04/28 12:48:07;;;;;;;;;;;18.50;65.50;;;;;;5096099;28;20372;-77
2021/04/28 12:50:34;;;;;;;;;;;18.50;67.40;;;;;;5076525;28;19908;-76
2021/04/28 12:53:35;;;;;;;;;;;18.50;67.10;;;;;;5088897;28;19919;-72
2021/04/28 12:56:01;;;;;;;;;;;18.60;67.20;;;;;;5053982;28;19912;-76
2021/04/28 12:58:26;;;;;;;;;;;18.60;66.00;;;;;;5081371;28;19957;-76
2021/04/28 13:00:53;;;;;;;;;;;18.70;65.30;;;;;;5096501;28;19908;-76
2021/04/28 13:03:25;;;;;;;;;;;18.80;65.00;;;;;;5096365;28;19912;-78
2021/04/28 13:05:55;;;;;;;;;;;19.00;65.20;;;;;;5099625;28;20014;-78
2021/04/28 13:08:20;;;;;;;;;;;19.20;65.90;;;;;;5105592;28;19908;-79
2021/04/28 13:11:06;;;;;;;;;;;19.30;64.20;;;;;;5103901;28;19908;-77
2021/04/28 13:13:58;;;;;;;;;;;19.50;65.00;;;;;;5101039;28;19908;-78
2021/04/28 13:16:37;;;;;;;;;;;19.50;62.90;;;;;;5097751;28;19915;-78
2021/04/28 13:19:04;;;;;;;;;;;19.30;64.70;;;;;;5103271;28;19907;-76
2021/04/28 13:21:34;;;;;;;;;;;19.10;64.10;;;;;;5104975;28;19908;-76
2021/04/28 13:24:08;;;;;;;;;;;19.00;64.30;;;;;;5099497;28;19966;-75
2021/04/28 13:26:35;;;;;;;;;;;19.20;64.10;;;;;;5097621;28;19915;-72
2021/04/28 13:29:01;;;;;;;;;;;19.20;65.10;;;;;;5096189;28;19915;-73
2021/04/28 13:31:28;;;;;;;;;;;19.30;63.20;;;;;;5094691;28;19912;-74
2021/04/28 13:33:55;;;;;;;;;;;19.30;64.00;;;;;;5095479;28;19957;-74
2021/04/28 13:36:31;;;;;;;;;;;19.40;63.40;;;;;;5094331;28;19915;-73
2021/04/28 13:39:08;;;;;;;;;;;19.50;64.30;;;;;;5093807;28;20004;-72
2021/04/28 13:41:33;;;;;;;;;;;19.40;68.10;;;;;;5094686;28;19962;-73
2021/04/28 13:44:03;;;;;;;;;;;19.20;71.40;;;;;;5092574;28;19916;-71
2021/04/28 13:46:31;;;;;;;;;;;19.40;71.60;;;;;;5087760;28;20444;-69
2021/04/28 13:48:56;;;;;;;;;;;19.10;73.00;;;;;;5093544;28;20282;-70
2021/04/28 13:51:29;;;;;;;;;;;19.10;71.70;;;;;;5094478;28;20014;-71
2021/04/28 13:53:55;;;;;;;;;;;18.90;72.90;;;;;;5094120;28;19908;-69
2021/04/28 13:56:21;;;;;;;;;;;18.60;74.30;;;;;;5093754;28;20383;-69
2021/04/28 13:58:46;;;;;;;;;;;18.30;75.90;;;;;;5094227;28;19908;-70
2021/04/28 14:01:12;;;;;;;;;;;17.80;75.90;;;;;;5092984;28;19912;-72
2021/04/28 14:03:37;;;;;;;;;;;17.70;75.60;;;;;;5094107;28;19912;-70
2021/04/28 14:06:03;;;;;;;;;;;17.50;75.80;;;;;;5093473;28;19919;-69
2021/04/28 14:08:29;;;;;;;;;;;17.30;76.10;;;;;;5093669;28;19943;-71
2021/04/28 14:10:54;;;;;;;;;;;17.20;76.50;;;;;;5092051;28;19960;-70
2021/04/28 14:13:19;;;;;;;;;;;17.00;76.40;;;;;;5092564;28;19916;-70
2021/04/28 14:15:45;;;;;;;;;;;16.90;77.60;;;;;;5093747;28;19912;-70
2021/04/28 14:18:10;;;;;;;;;;;16.80;78.30;;;;;;5093561;28;19915;-69
2021/04/28 14:20:36;;;;;;;;;;;16.70;78.10;;;;;;5093783;28;19912;-70
2021/04/28 14:23:01;;;;;;;;;;;16.60;79.40;;;;;;5093576;28;19912;-71
2021/04/28 14:25:27;;;;;;;;;;;16.60;79.70;;;;;;5093558;28;19908;-70